Latest Weather Observations for Ballina

IDN60801

Issued at 6:35 am EST Thursday 2 October 2014 (issued every 30 minutes, with the page automatically refreshed every 10 minutes)

About weather observations | Map of weather stations | Latest weather observations for NSW | Other Formats
Station Details ID: 058198 Name: BALLINA AIRPORT AWS Lat: -28.84 Lon: 153.56 Height: 1.3 m
Data from the previous 72 hours. | See also: Recent months at Ballina
Date/Time
EST
Temp
°C
App
Temp
°C
Dew
Point
Rel
Hum
%
Delta-T
°C
Wind Press
QNH
hPa
Press
MSL
hPa
Rain
since 9 am
mm
Dir
 
Spd
km/h
Gust
km/h
Spd
kts
Gust
kts
02/06:30am 15.9 13.8 9.8 67 3.2 WSW 11 15 6 8 1022.4 1022.4 0.0
02/06:00am 15.8 13.2 9.5 66 3.3 WSW 13 17 7 9 1022.0 1022.0 0.0
02/05:30am 16.2 13.5 8.9 62 3.7 SW 13 17 7 9 1021.7 1021.7 0.0
02/05:00am 17.9 14.5 9.3 57 4.5 SSE 17 22 9 12 1021.3 1021.3 0.0
02/04:30am 18.2 14.3 8.7 54 4.9 SSE 19 26 10 14 1021.1 1021.1 0.0
02/04:00am 18.1 14.0 8.7 54 4.8 SSE 20 28 11 15 1020.9 1020.9 0.0
02/03:30am 18.1 14.1 8.1 52 5.1 SSE 19 30 10 16 1020.6 1020.6 0.0
02/03:00am 18.2 14.0 8.2 52 5.1 SSE 20 30 11 16 1020.7 1020.7 0.0
02/02:30am 18.1 14.1 8.4 53 5.0 SSE 19 28 10 15 1020.6 1020.6 0.0
02/02:00am 18.1 14.3 8.9 55 4.8 SSE 19 28 10 15 1020.8 1020.8 0.0
02/01:30am 18.1 13.9 8.4 53 5.0 SSE 20 32 11 17 1020.9 1020.9 0.0
02/01:00am 18.2 13.7 8.7 54 4.9 SSE 22 32 12 17 1021.2 1021.2 0.0
02/12:30am 18.4 13.5 8.4 52 5.2 SSE 24 39 13 21 1021.3 1021.3 0.0
02/12:00am 18.5 12.8 8.5 52 5.1 SSE 28 37 15 20 1021.5 1021.5 0.0
 
Date/Time
EST
Temp
°C
App
Temp
°C
Dew
Point
Rel
Hum
%
Delta-T
°C
Wind Press
QNH
hPa
Press
MSL
hPa
Rain
since 9 am
mm
Dir
 
Spd
km/h
Gust
km/h
Spd
kts
Gust
kts
01/11:30pm 18.6 13.5 9.1 54 5.0 SSE 26 37 14 20 1021.5 1021.5 0.0
01/11:00pm 18.9 13.4 9.1 53 5.1 SSE 28 41 15 22 1021.5 1021.5 0.0
01/10:30pm 18.9 13.4 9.1 53 5.1 SSE 28 37 15 20 1021.4 1021.4 0.0
01/10:00pm 18.9 13.9 9.7 55 4.9 S 26 39 14 21 1021.3 1021.3 0.0
01/09:30pm 19.0 13.5 9.2 53 5.1 S 28 37 15 20 1021.1 1021.1 0.0
01/09:00pm 19.1 14.3 10.4 57 4.7 S 26 35 14 19 1020.9 1020.9 0.0
01/08:30pm 19.2 14.7 9.9 55 4.9 S 24 37 13 20 1020.7 1020.7 0.0
01/08:00pm 19.2 13.8 11.0 59 4.4 S 30 43 16 23 1020.2 1020.2 0.0
01/07:36pm 19.4 14.3 11.9 62 4.2 S 30 48 16 26 1019.8 1019.8 0.0
01/07:30pm 19.4 13.8 11.4 60 4.4 S 32 48 17 26 1019.7 1019.7 0.0
01/07:00pm 19.6 15.2 11.6 60 4.4 S 26 39 14 21 1019.2 1019.2 0.0
01/06:45pm 19.7 15.0 12.0 61 4.3 S 28 46 15 25 1018.8 1018.8 0.0
01/06:30pm 19.8 15.7 12.6 63 4.0 S 26 39 14 21 1018.6 1018.6 0.0
01/06:00pm 19.9 14.6 12.4 62 4.2 S 32 48 17 26 1017.8 1017.8 0.0
01/05:30pm 20.4 17.0 14.7 70 3.3 SSE 26 39 14 21 1017.2 1017.2 0.0
01/05:00pm 20.5 15.8 13.2 63 4.2 SSE 30 48 16 26 1016.6 1016.6 0.0
01/04:57pm 20.6 15.9 13.3 63 4.2 SSE 30 48 16 26 1016.5 1016.5 0.0
01/04:30pm 20.8 15.7 14.9 69 3.5 SSE 35 50 19 27 1015.9 1015.9 0.0
01/04:00pm 21.5 16.3 15.6 69 3.5 SSE 37 50 20 27 1015.2 1015.2 0.0
01/03:30pm 22.2 17.8 16.7 71 3.4 SSE 35 46 19 25 1014.6 1014.6 0.0
01/03:00pm 23.5 19.2 17.7 70 3.6 S 37 56 20 30 1013.6 1013.6 0.0
01/02:34pm 27.1 23.3 15.8 50 6.9 S 30 48 16 26 1012.4 1012.4 0.0
01/02:30pm 28.3 23.4 12.6 38 9.2 S 30 43 16 23 1012.3 1012.3 0.0
01/02:05pm 30.0 27.5 16.1 43 8.6 SSE 24 33 13 18 1011.1 1011.1 0.0
01/02:00pm 32.1 24.9 11.8 29 11.9 SSW 41 61 22 33 1010.8 1010.8 0.0
01/01:59pm 32.4 23.9 8.6 23 13.3 SW 43 61 23 33 1010.8 1010.8 0.0
01/01:57pm 32.7 24.9 8.2 22 13.6 W 39 61 21 33 1010.5 1010.5 0.0
01/01:30pm 32.5 28.7 9.9 25 12.9 W 20 35 11 19 1011.1 1011.1 0.0
01/01:00pm 32.4 27.7 9.2 24 13.1 WSW 24 32 13 17 1011.6 1011.6 0.0
01/12:30pm 32.4 29.2 13.1 31 11.6 W 22 32 12 17 1011.9 1011.9 0.0
01/12:00pm 31.8 27.7 11.6 29 11.8 WSW 24 30 13 16 1012.5 1012.5 0.0
01/11:30am 30.8 27.6 11.2 30 11.3 WNW 19 32 10 17 1013.0 1013.0 0.0
01/11:00am 30.2 28.3 13.0 34 10.2 WNW 15 24 8 13 1013.5 1013.5 0.0
01/10:30am 29.7 26.1 11.7 33 10.4 WNW 22 32 12 17 1013.8 1013.8 0.0
01/10:00am 28.8 25.5 12.7 37 9.4 NW 22 30 12 16 1014.4 1014.4 0.0
01/09:30am 28.2 25.2 12.5 37 9.2 WNW 20 32 11 17 1014.8 1014.8 0.0
01/09:00am 26.7 25.8 14.8 48 7.2 NNW 13 24 7 13 1014.7 1014.7 0.0
01/08:30am 25.3 24.8 15.9 56 5.7 N 13 19 7 10 1015.0 1015.0 0.0
01/08:00am 23.1 22.5 15.7 63 4.4 N 13 19 7 10 1015.2 1015.2 0.0
01/07:30am 21.3 21.4 15.4 69 3.5 N 9 11 5 6 1015.5 1015.5 0.0
01/07:00am 19.6 20.4 16.3 81 2.0 N 7 9 4 5 1015.5 1015.5 0.0
01/06:30am 17.3 19.4 16.2 93 0.7 CALM 0 6 0 3 1015.0 1015.0 0.0
01/06:00am 15.2 16.5 14.2 94 0.6 CALM 0 0 0 0 1014.5 1014.5 0.0
01/05:30am 14.9 15.0 13.9 94 0.6 WNW 6 7 3 4 1014.2 1014.2 0.0
01/05:00am 15.5 16.0 13.9 90 0.9 WNW 4 7 2 4 1013.8 1013.8 0.0
01/04:30am 17.9 17.5 15.3 85 1.5 NNW 11 15 6 8 1013.5 1013.5 0.0
01/04:00am 18.3 18.1 15.7 85 1.5 N 11 17 6 9 1013.3 1013.3 0.0
01/03:30am 18.5 17.9 15.7 84 1.7 N 13 20 7 11 1013.3 1013.3 0.0
01/03:00am 18.7 17.8 15.8 83 1.7 N 15 22 8 12 1013.5 1013.5 0.0
01/02:30am 18.8 17.6 16.0 84 1.7 N 17 24 9 13 1013.6 1013.6 0.0
01/02:00am 18.8 17.6 16.0 84 1.7 N 17 22 9 12 1014.0 1014.0 0.0
01/01:30am 18.7 17.4 15.8 83 1.7 N 17 20 9 11 1014.4 1014.4 0.0
01/01:00am 18.7 16.9 15.6 82 1.8 N 19 26 10 14 1014.8 1014.8 0.0
01/12:30am 18.8 17.5 15.7 82 1.8 N 17 24 9 13 1015.1 1015.1 0.0
01/12:00am 19.1 17.1 15.6 80 2.1 N 20 28 11 15 1015.5 1015.5 0.0
 
Date/Time
EST
Temp
°C
App
Temp
°C
Dew
Point
Rel
Hum
%
Delta-T
°C
Wind Press
QNH
hPa
Press
MSL
hPa
Rain
since 9 am
mm
Dir
 
Spd
km/h
Gust
km/h
Spd
kts
Gust
kts
30/11:30pm 19.2 17.2 15.5 79 2.2 N 20 26 11 14 1015.8 1015.8 0.0
30/11:00pm 19.4 17.0 15.5 78 2.3 N 22 28 12 15 1015.9 1015.9 0.0
30/10:30pm 19.5 17.5 15.4 77 2.4 N 20 30 11 16 1016.2 1016.2 0.0
30/10:00pm 19.6 17.6 15.5 77 2.4 N 20 30 11 16 1016.3 1016.3 0.0
30/09:30pm 19.8 17.2 15.9 78 2.3 N 24 35 13 19 1016.4 1016.4 0.0
30/09:00pm 19.9 17.0 16.2 79 2.2 N 26 37 14 20 1016.7 1016.7 0.0
30/08:30pm 19.9 17.5 16.3 80 2.2 N 24 33 13 18 1016.7 1016.7 0.0
30/08:00pm 19.9 18.2 16.3 80 2.2 N 20 28 11 15 1016.7 1016.7 0.0
30/07:30pm 20.1 17.6 16.1 78 2.4 N 24 33 13 18 1016.6 1016.6 0.0
30/07:00pm 20.0 17.9 16.2 79 2.3 N 22 32 12 17 1016.5 1016.5 0.0
30/06:30pm 20.1 18.3 16.1 78 2.4 N 20 32 11 17 1016.2 1016.2 0.0
30/06:00pm 20.3 17.7 15.9 76 2.6 NNE 24 35 13 19 1015.8 1015.8 0.0
30/05:30pm 20.8 18.2 15.8 73 3.0 N 24 35 13 19 1015.7 1015.7 0.0
30/05:00pm 21.6 18.1 15.4 68 3.7 N 28 37 15 20 1015.7 1015.7 0.0
30/04:30pm 22.3 18.7 15.2 64 4.2 N 28 35 15 19 1015.8 1015.8 0.0
30/04:00pm 22.9 18.3 15.0 61 4.7 N 33 46 18 25 1015.8 1015.8 0.0
30/03:30pm 23.7 20.0 14.9 57 5.2 N 28 44 15 24 1015.7 1015.7 0.0
30/03:00pm 24.1 19.6 14.8 56 5.5 N 32 43 17 23 1015.9 1015.9 0.0
30/02:30pm 24.7 21.1 14.2 52 6.2 NNE 26 39 14 21 1016.0 1016.0 0.0
30/02:00pm 26.1 23.7 15.5 52 6.4 NNE 22 33 12 18 1016.1 1016.1 0.0
30/01:30pm 25.7 23.0 14.5 50 6.7 N 22 30 12 16 1016.3 1016.3 0.0
30/01:00pm 25.8 22.5 14.9 51 6.5 NE 26 33 14 18 1016.8 1016.8 0.0
30/12:30pm 25.7 22.2 15.4 53 6.2 NE 28 33 15 18 1017.2 1017.2 0.0
30/12:00pm 25.6 22.1 15.6 54 6.1 NE 28 35 15 19 1017.5 1017.5 0.0
30/11:30am 25.8 23.0 16.4 56 5.8 NE 26 32 14 17 1017.8 1017.8 0.0
30/11:00am 26.0 23.4 16.0 54 6.1 NE 24 30 13 16 1018.2 1018.2 0.0
30/10:30am 25.6 23.6 15.6 54 6.1 NE 20 28 11 15 1018.6 1018.6 0.0
30/10:00am 25.4 24.7 14.2 50 6.6 N 11 20 6 11 1019.0 1019.0 0.0
30/09:30am 24.8 24.6 14.6 53 6.1 N 9 15 5 8 1019.4 1019.4 0.0
30/09:00am 23.4 22.7 13.3 53 5.8 N 9 13 5 7 1019.6 1019.6 0.0
30/08:30am 22.2 21.1 13.0 56 5.3 N 11 15 6 8 1019.5 1019.5 0.0
30/08:00am 21.2 20.4 14.1 64 4.1 N 11 17 6 9 1019.4 1019.4 0.0
30/07:30am 19.3 18.7 13.5 69 3.3 N 9 13 5 7 1019.3 1019.3 0.0
30/07:00am 15.9 17.5 14.8 93 0.6 CALM 0 0 0 0 1019.4 1019.4 0.0
30/06:30am 13.9 15.0 13.4 97 0.3 CALM 0 0 0 0 1019.2 1019.2 0.0
30/06:00am 11.9 12.3 11.4 97 0.3 CALM 0 0 0 0 1019.0 1019.0 0.0
30/05:42am 11.8 12.2 11.2 96 0.3 CALM 0 0 0 0 1018.7 1018.7 0.0
30/05:30am 11.7 12.1 11.1 96 0.3 CALM 0 0 0 0 1018.7 1018.7 0.0
30/05:03am 11.1 11.3 10.5 96 0.3 CALM 0 0 0 0 1018.4 1018.4 0.0
30/05:00am 11.8 12.2 11.2 96 0.3 CALM 0 0 0 0 1018.4 1018.4 0.0
30/04:59am 11.8 12.2 11.2 96 0.3 CALM 0 0 0 0 1018.4 1018.4 0.0
30/04:36am 12.6 13.2 12.0 96 0.3 CALM 0 0 0 0 1018.2 1018.2 0.0
30/04:30am 12.2 12.7 11.6 96 0.3 CALM 0 0 0 0 1018.1 1018.1 0.0
30/04:00am 12.3 12.7 11.4 94 0.5 CALM 0 0 0 0 1018.0 1018.0 0.0
30/03:30am 12.7 13.3 11.8 94 0.5 CALM 0 0 0 0 1017.7 1017.7 0.0
30/03:00am 12.9 13.4 11.6 92 0.7 CALM 0 0 0 0 1017.6 1017.6 0.0
30/02:30am 13.1 13.6 11.7 91 0.7 CALM 0 0 0 0 1017.8 1017.8 0.0
30/02:00am 14.1 14.8 12.3 89 1.0 CALM 0 0 0 0 1017.9 1017.9 0.0
30/01:30am 14.6 14.0 11.7 83 1.6 N 6 6 3 3 1017.9 1017.9 0.0
30/01:00am 16.4 16.2 13.1 81 1.8 NNW 6 7 3 4 1018.2 1018.2 0.0
30/12:30am 16.7 15.9 13.0 79 2.1 N 9 13 5 7 1018.3 1018.3 0.0
30/12:00am 17.1 15.6 13.0 77 2.3 N 13 17 7 9 1018.4 1018.4 0.0
 
Date/Time
EST
Temp
°C
App
Temp
°C
Dew
Point
Rel
Hum
%
Delta-T
°C
Wind Press
QNH
hPa
Press
MSL
hPa
Rain
since 9 am
mm
Dir
 
Spd
km/h
Gust
km/h
Spd
kts
Gust
kts
29/11:30pm 17.3 15.8 13.0 76 2.4 N 13 19 7 10 1018.5 1018.5 0.0
29/11:00pm 17.8 15.9 13.1 74 2.6 N 15 19 8 10 1018.5 1018.5 0.0
29/10:30pm 18.1 15.5 13.2 73 2.8 N 19 24 10 13 1018.5 1018.5 0.0
29/10:00pm 18.2 16.1 13.7 75 2.6 N 17 22 9 12 1018.6 1018.6 0.0
29/09:30pm 18.6 16.4 14.5 77 2.4 N 19 28 10 15 1018.6 1018.6 0.0
29/09:00pm 18.8 16.8 14.9 78 2.3 N 19 28 10 15 1018.6 1018.6 0.0
29/08:30pm 18.9 16.9 15.0 78 2.3 N 19 24 10 13 1018.5 1018.5 0.0
29/08:00pm 19.0 17.4 14.9 77 2.4 N 17 24 9 13 1018.4 1018.4 0.0
29/07:30pm 19.2 17.1 14.7 75 2.6 N 19 26 10 14 1018.1 1018.1 0.0
29/07:00pm 19.4 17.8 15.1 76 2.5 N 17 24 9 13 1017.8 1017.8 0.0
29/06:30pm 19.6 17.6 15.0 75 2.7 N 19 24 10 13 1017.5 1017.5 0.0
29/06:00pm 19.7 18.1 14.9 74 2.8 N 17 26 9 14 1017.2 1017.2 0.0
29/05:30pm 20.6 18.7 15.2 71 3.2 N 19 30 10 16 1016.9 1016.9 0.0
29/05:00pm 21.5 19.0 15.1 67 3.8 N 22 30 12 16 1016.6 1016.6 0.0
29/04:30pm 22.4 20.2 15.0 63 4.4 N 20 26 11 14 1016.7 1016.7 0.0
29/04:00pm 23.1 20.4 14.7 59 5.0 N 22 28 12 15 1016.6 1016.6 0.0
29/03:30pm 23.7 20.9 14.4 56 5.5 NNE 22 30 12 16 1016.5 1016.5 0.0
29/03:00pm 24.6 22.7 15.2 55 5.6 N 19 30 10 16 1016.4 1016.4 0.0
29/02:30pm 24.0 20.5 15.5 59 5.1 NE 28 35 15 19 1016.5 1016.5 0.0
29/02:00pm 24.7 22.3 15.3 56 5.6 NE 22 30 12 16 1016.8 1016.8 0.0
29/01:30pm 24.7 21.9 15.3 56 5.7 NE 24 30 13 16 1017.2 1017.2 0.0
29/01:00pm 25.1 22.4 15.7 56 5.7 NE 24 33 13 18 1017.5 1017.5 0.0
29/12:30pm 25.0 23.1 15.3 55 5.8 NE 19 28 10 15 1017.9 1017.9 0.0
29/12:00pm 24.5 21.2 14.9 55 5.7 NE 26 33 14 18 1018.2 1018.2 0.0
29/11:30am 24.5 22.2 14.0 52 6.2 NNE 19 28 10 15 1018.6 1018.6 0.0
29/11:00am 24.0 21.8 14.4 55 5.7 N 19 28 10 15 1019.1 1019.1 0.0
29/10:30am 23.2 20.4 13.1 53 5.8 N 20 28 11 15 1019.6 1019.6 0.0
29/10:00am 23.3 20.7 13.8 55 5.5 NNE 20 28 11 15 1019.9 1019.9 0.0
29/09:30am 22.7 20.1 13.7 56 5.2 N 20 30 11 16 1020.1 1020.1 0.0
29/09:00am 21.4 18.8 13.3 60 4.6 N 19 24 10 13 1020.6 1020.6 0.0
29/08:30am 20.5 20.6 14.4 68 3.6 NNW 7 19 4 10 1021.2 1021.2 0.0
29/08:00am 18.5 19.2 13.4 72 2.9 WSW 2 9 1 5 1021.3 1021.3 0.0
29/07:30am 16.5 17.6 13.4 82 1.7 CALM 0 0 0 0 1021.3 1021.3 0.0
29/07:00am 14.3 15.4 13.5 95 0.4 CALM 0 0 0 0 1021.2 1021.2 0.0

Other Formats:

Comma delimited format used in spreadsheet applications
http://www.bom.gov.au/fwo/IDN60801/IDN60801.94596.axf

JavaScript Object Notation format (JSON) in row-major order
http://www.bom.gov.au/fwo/IDN60801/IDN60801.94596.json